sensor_id;sensor_type;location;lat;lon;timestamp;temperature;humidity
15143;DHT22;7672;50.834;6.286;2024-03-02T00:01:36;11.70;99.90
15143;DHT22;7672;50.834;6.286;2024-03-02T00:04:20;11.70;99.90
15143;DHT22;7672;50.834;6.286;2024-03-02T00:06:50;11.80;99.90
15143;DHT22;7672;50.834;6.286;2024-03-02T00:09:18;11.80;99.90
15143;DHT22;7672;50.834;6.286;2024-03-02T00:11:46;11.80;99.90
15143;DHT22;7672;50.834;6.286;2024-03-02T00:14:13;11.80;99.90
15143;DHT22;7672;50.834;6.286;2024-03-02T00:16:40;11.80;99.90
15143;DHT22;7672;50.834;6.286;2024-03-02T00:19:09;11.90;99.90
15143;DHT22;7672;50.834;6.286;2024-03-02T00:21:38;11.90;99.90
15143;DHT22;7672;50.834;6.286;2024-03-02T00:24:21;12.10;99.90
15143;DHT22;7672;50.834;6.286;2024-03-02T00:27:01;12.20;99.90
15143;DHT22;7672;50.834;6.286;2024-03-02T00:29:32;11.90;99.90
15143;DHT22;7672;50.834;6.286;2024-03-02T00:32:01;12.00;99.90
15143;DHT22;7672;50.834;6.286;2024-03-02T00:34:29;12.00;99.90
15143;DHT22;7672;50.834;6.286;2024-03-02T00:36:58;12.00;99.90
15143;DHT22;7672;50.834;6.286;2024-03-02T00:39:27;12.00;99.90
15143;DHT22;7672;50.834;6.286;2024-03-02T00:41:54;12.00;99.90
15143;DHT22;7672;50.834;6.286;2024-03-02T00:44:23;12.00;99.90
15143;DHT22;7672;50.834;6.286;2024-03-02T00:46:53;12.10;99.90
15143;DHT22;7672;50.834;6.286;2024-03-02T00:49:24;12.10;99.90
15143;DHT22;7672;50.834;6.286;2024-03-02T00:51:53;12.30;99.90
15143;DHT22;7672;50.834;6.286;2024-03-02T00:54:23;12.40;99.90
15143;DHT22;7672;50.834;6.286;2024-03-02T00:56:53;12.10;99.90
15143;DHT22;7672;50.834;6.286;2024-03-02T00:59:23;12.10;99.90
15143;DHT22;7672;50.834;6.286;2024-03-02T01:01:51;12.20;99.90
15143;DHT22;7672;50.834;6.286;2024-03-02T01:04:18;12.20;99.90
15143;DHT22;7672;50.834;6.286;2024-03-02T01:06:50;12.20;99.90
15143;DHT22;7672;50.834;6.286;2024-03-02T01:09:17;12.50;99.90
15143;DHT22;7672;50.834;6.286;2024-03-02T01:11:45;12.20;99.90
15143;DHT22;7672;50.834;6.286;2024-03-02T01:14:12;12.20;99.90
15143;DHT22;7672;50.834;6.286;2024-03-02T01:16:39;12.50;99.90
15143;DHT22;7672;50.834;6.286;2024-03-02T01:19:07;12.10;99.90
15143;DHT22;7672;50.834;6.286;2024-03-02T01:21:38;12.20;99.90
15143;DHT22;7672;50.834;6.286;2024-03-02T01:24:05;12.50;99.90
15143;DHT22;7672;50.834;6.286;2024-03-02T01:26:32;12.20;99.90
15143;DHT22;7672;50.834;6.286;2024-03-02T01:28:59;12.20;99.90
15143;DHT22;7672;50.834;6.286;2024-03-02T01:31:26;12.60;99.90
15143;DHT22;7672;50.834;6.286;2024-03-02T01:33:53;12.50;99.90
15143;DHT22;7672;50.834;6.286;2024-03-02T01:36:21;12.40;99.90
15143;DHT22;7672;50.834;6.286;2024-03-02T01:38:48;12.60;99.90
15143;DHT22;7672;50.834;6.286;2024-03-02T01:41:15;12.30;99.90
15143;DHT22;7672;50.834;6.286;2024-03-02T01:43:42;12.60;99.90
15143;DHT22;7672;50.834;6.286;2024-03-02T01:46:09;12.60;99.90
15143;DHT22;7672;50.834;6.286;2024-03-02T01:48:36;12.30;99.90
15143;DHT22;7672;50.834;6.286;2024-03-02T01:51:04;12.30;99.90
15143;DHT22;7672;50.834;6.286;2024-03-02T01:53:34;12.30;99.90
15143;DHT22;7672;50.834;6.286;2024-03-02T01:56:02;12.30;99.90
15143;DHT22;7672;50.834;6.286;2024-03-02T01:58:29;12.30;99.90
15143;DHT22;7672;50.834;6.286;2024-03-02T02:00:57;12.40;99.90
15143;DHT22;7672;50.834;6.286;2024-03-02T02:03:27;12.40;99.90
15143;DHT22;7672;50.834;6.286;2024-03-02T02:05:54;12.40;99.90
15143;DHT22;7672;50.834;6.286;2024-03-02T02:08:23;12.50;99.90
15143;DHT22;7672;50.834;6.286;2024-03-02T02:10:55;12.40;99.90
15143;DHT22;7672;50.834;6.286;2024-03-02T02:13:25;12.80;99.90
15143;DHT22;7672;50.834;6.286;2024-03-02T02:16:07;12.40;99.90
15143;DHT22;7672;50.834;6.286;2024-03-02T02:18:39;12.40;99.90
15143;DHT22;7672;50.834;6.286;2024-03-02T02:21:09;12.70;99.90
15143;DHT22;7672;50.834;6.286;2024-03-02T02:23:36;12.40;99.90
15143;DHT22;7672;50.834;6.286;2024-03-02T02:26:03;12.40;99.90
15143;DHT22;7672;50.834;6.286;2024-03-02T02:28:30;12.40;99.90
15143;DHT22;7672;50.834;6.286;2024-03-02T02:30:58;12.40;99.90
15143;DHT22;7672;50.834;6.286;2024-03-02T02:33:27;12.50;99.90
15143;DHT22;7672;50.834;6.286;2024-03-02T02:35:54;12.50;99.90
15143;DHT22;7672;50.834;6.286;2024-03-02T02:38:22;12.30;99.90
15143;DHT22;7672;50.834;6.286;2024-03-02T02:40:49;12.30;99.90
15143;DHT22;7672;50.834;6.286;2024-03-02T02:43:19;12.60;99.90
15143;DHT22;7672;50.834;6.286;2024-03-02T02:45:51;12.30;99.90
15143;DHT22;7672;50.834;6.286;2024-03-02T02:48:18;12.30;99.90
15143;DHT22;7672;50.834;6.286;2024-03-02T02:50:46;12.20;99.90
15143;DHT22;7672;50.834;6.286;2024-03-02T02:53:13;12.60;99.90
15143;DHT22;7672;50.834;6.286;2024-03-02T02:55:40;12.20;99.90
15143;DHT22;7672;50.834;6.286;2024-03-02T02:58:07;12.20;99.90
15143;DHT22;7672;50.834;6.286;2024-03-02T03:00:34;12.20;99.90
15143;DHT22;7672;50.834;6.286;2024-03-02T03:03:02;12.10;99.90
15143;DHT22;7672;50.834;6.286;2024-03-02T03:05:29;12.10;99.90
15143;DHT22;7672;50.834;6.286;2024-03-02T03:07:56;11.80;99.90
15143;DHT22;7672;50.834;6.286;2024-03-02T03:10:24;12.20;99.90
15143;DHT22;7672;50.834;6.286;2024-03-02T03:12:53;12.00;99.90
15143;DHT22;7672;50.834;6.286;2024-03-02T03:15:23;11.70;99.90
15143;DHT22;7672;50.834;6.286;2024-03-02T03:17:50;11.90;99.90
15143;DHT22;7672;50.834;6.286;2024-03-02T03:20:18;11.90;99.90
15143;DHT22;7672;50.834;6.286;2024-03-02T03:22:45;11.90;99.90
15143;DHT22;7672;50.834;6.286;2024-03-02T03:25:12;11.90;99.90
15143;DHT22;7672;50.834;6.286;2024-03-02T03:27:39;11.80;99.90
15143;DHT22;7672;50.834;6.286;2024-03-02T03:30:07;11.80;99.90
15143;DHT22;7672;50.834;6.286;2024-03-02T03:32:34;11.80;99.90
15143;DHT22;7672;50.834;6.286;2024-03-02T03:35:02;11.70;99.90
15143;DHT22;7672;50.834;6.286;2024-03-02T03:37:29;11.70;99.90
15143;DHT22;7672;50.834;6.286;2024-03-02T03:40:05;11.70;99.90
15143;DHT22;7672;50.834;6.286;2024-03-02T03:42:38;11.60;99.90
15143;DHT22;7672;50.834;6.286;2024-03-02T03:45:06;11.60;99.90
15143;DHT22;7672;50.834;6.286;2024-03-02T03:47:34;11.60;99.90
15143;DHT22;7672;50.834;6.286;2024-03-02T03:50:01;11.50;99.90
15143;DHT22;7672;50.834;6.286;2024-03-02T03:52:31;11.70;99.90
15143;DHT22;7672;50.834;6.286;2024-03-02T03:54:58;11.40;99.90
15143;DHT22;7672;50.834;6.286;2024-03-02T03:57:26;11.40;99.90
15143;DHT22;7672;50.834;6.286;2024-03-02T03:59:54;11.30;99.90
15143;DHT22;7672;50.834;6.286;2024-03-02T04:02:21;11.30;99.90
15143;DHT22;7672;50.834;6.286;2024-03-02T04:04:48;11.20;99.90
15143;DHT22;7672;50.834;6.286;2024-03-02T04:07:15;11.20;99.90
15143;DHT22;7672;50.834;6.286;2024-03-02T04:09:43;11.20;99.90
15143;DHT22;7672;50.834;6.286;2024-03-02T04:12:10;11.20;99.90
15143;DHT22;7672;50.834;6.286;2024-03-02T04:14:37;11.20;99.90
15143;DHT22;7672;50.834;6.286;2024-03-02T04:17:04;11.20;99.90
15143;DHT22;7672;50.834;6.286;2024-03-02T04:19:32;11.10;99.90
15143;DHT22;7672;50.834;6.286;2024-03-02T04:21:59;11.10;99.90
15143;DHT22;7672;50.834;6.286;2024-03-02T04:24:38;11.50;99.90
15143;DHT22;7672;50.834;6.286;2024-03-02T04:27:11;11.40;99.90
15143;DHT22;7672;50.834;6.286;2024-03-02T04:29:38;11.10;99.90
15143;DHT22;7672;50.834;6.286;2024-03-02T04:32:05;11.10;99.90
15143;DHT22;7672;50.834;6.286;2024-03-02T04:34:39;11.10;99.90
15143;DHT22;7672;50.834;6.286;2024-03-02T04:37:06;11.10;99.90
15143;DHT22;7672;50.834;6.286;2024-03-02T04:39:35;11.10;99.90
15143;DHT22;7672;50.834;6.286;2024-03-02T04:42:06;11.10;99.90
15143;DHT22;7672;50.834;6.286;2024-03-02T04:44:33;11.10;99.90
15143;DHT22;7672;50.834;6.286;2024-03-02T04:47:00;11.10;99.90
15143;DHT22;7672;50.834;6.286;2024-03-02T04:49:27;11.10;99.90
15143;DHT22;7672;50.834;6.286;2024-03-02T04:51:55;11.00;99.90
15143;DHT22;7672;50.834;6.286;2024-03-02T04:54:29;11.10;99.90
15143;DHT22;7672;50.834;6.286;2024-03-02T04:57:02;11.00;99.90
15143;DHT22;7672;50.834;6.286;2024-03-02T04:59:38;11.00;99.90
15143;DHT22;7672;50.834;6.286;2024-03-02T05:02:06;11.00;99.90
15143;DHT22;7672;50.834;6.286;2024-03-02T05:05:02;11.00;99.90
15143;DHT22;7672;50.834;6.286;2024-03-02T05:07:32;11.00;99.90
15143;DHT22;7672;50.834;6.286;2024-03-02T05:09:59;11.00;99.90
15143;DHT22;7672;50.834;6.286;2024-03-02T05:12:30;11.30;99.90
15143;DHT22;7672;50.834;6.286;2024-03-02T05:15:14;11.00;99.90
15143;DHT22;7672;50.834;6.286;2024-03-02T05:17:44;11.00;99.90
15143;DHT22;7672;50.834;6.286;2024-03-02T05:20:15;11.00;99.90
15143;DHT22;7672;50.834;6.286;2024-03-02T05:22:43;11.00;99.90
15143;DHT22;7672;50.834;6.286;2024-03-02T05:25:11;11.00;99.90
15143;DHT22;7672;50.834;6.286;2024-03-02T05:27:38;11.00;99.90
15143;DHT22;7672;50.834;6.286;2024-03-02T05:30:05;11.00;99.90
15143;DHT22;7672;50.834;6.286;2024-03-02T05:32:33;11.00;99.90
15143;DHT22;7672;50.834;6.286;2024-03-02T05:35:01;11.00;99.90
15143;DHT22;7672;50.834;6.286;2024-03-02T05:37:27;10.90;99.90
15143;DHT22;7672;50.834;6.286;2024-03-02T05:39:55;10.90;99.90
15143;DHT22;7672;50.834;6.286;2024-03-02T05:42:22;10.90;99.90
15143;DHT22;7672;50.834;6.286;2024-03-02T05:44:49;10.90;99.90
15143;DHT22;7672;50.834;6.286;2024-03-02T05:47:16;10.90;99.90
15143;DHT22;7672;50.834;6.286;2024-03-02T05:49:43;11.10;99.90
15143;DHT22;7672;50.834;6.286;2024-03-02T05:52:10;10.90;99.90
15143;DHT22;7672;50.834;6.286;2024-03-02T05:54:38;10.90;99.90
15143;DHT22;7672;50.834;6.286;2024-03-02T05:57:05;10.90;99.90
15143;DHT22;7672;50.834;6.286;2024-03-02T06:00:00;10.90;99.90
15143;DHT22;7672;50.834;6.286;2024-03-02T06:02:27;10.80;99.90
15143;DHT22;7672;50.834;6.286;2024-03-02T06:04:56;10.80;99.90
15143;DHT22;7672;50.834;6.286;2024-03-02T06:07:24;10.80;99.90
15143;DHT22;7672;50.834;6.286;2024-03-02T06:09:51;10.80;99.90
15143;DHT22;7672;50.834;6.286;2024-03-02T06:12:19;10.80;99.90
15143;DHT22;7672;50.834;6.286;2024-03-02T06:14:46;10.80;99.90
15143;DHT22;7672;50.834;6.286;2024-03-02T06:17:13;10.80;99.90
15143;DHT22;7672;50.834;6.286;2024-03-02T06:19:40;10.80;99.90
15143;DHT22;7672;50.834;6.286;2024-03-02T06:22:07;10.80;99.90
15143;DHT22;7672;50.834;6.286;2024-03-02T06:24:37;10.80;99.90
15143;DHT22;7672;50.834;6.286;2024-03-02T06:27:05;10.80;99.90
15143;DHT22;7672;50.834;6.286;2024-03-02T06:29:35;10.80;99.90
15143;DHT22;7672;50.834;6.286;2024-03-02T06:32:02;10.70;99.90
15143;DHT22;7672;50.834;6.286;2024-03-02T06:34:29;10.80;99.90
15143;DHT22;7672;50.834;6.286;2024-03-02T06:36:56;10.70;99.90
15143;DHT22;7672;50.834;6.286;2024-03-02T06:39:23;10.70;99.90
15143;DHT22;7672;50.834;6.286;2024-03-02T06:41:50;10.80;99.90
15143;DHT22;7672;50.834;6.286;2024-03-02T06:44:17;10.80;99.90
15143;DHT22;7672;50.834;6.286;2024-03-02T06:46:44;10.80;99.90
15143;DHT22;7672;50.834;6.286;2024-03-02T06:49:11;10.90;99.90
15143;DHT22;7672;50.834;6.286;2024-03-02T06:51:38;11.00;99.90
15143;DHT22;7672;50.834;6.286;2024-03-02T06:54:05;11.20;99.90
15143;DHT22;7672;50.834;6.286;2024-03-02T06:56:32;11.40;99.90
15143;DHT22;7672;50.834;6.286;2024-03-02T06:58:59;11.70;99.90
15143;DHT22;7672;50.834;6.286;2024-03-02T07:01:26;11.90;99.90
15143;DHT22;7672;50.834;6.286;2024-03-02T07:03:54;12.10;99.90
15143;DHT22;7672;50.834;6.286;2024-03-02T07:06:21;12.20;99.90
15143;DHT22;7672;50.834;6.286;2024-03-02T07:08:48;12.20;99.90
15143;DHT22;7672;50.834;6.286;2024-03-02T07:11:18;12.20;99.90
15143;DHT22;7672;50.834;6.286;2024-03-02T07:13:45;12.20;99.90
15143;DHT22;7672;50.834;6.286;2024-03-02T07:16:12;12.20;99.90
15143;DHT22;7672;50.834;6.286;2024-03-02T07:18:56;12.20;99.90
15143;DHT22;7672;50.834;6.286;2024-03-02T07:21:23;12.20;99.90
15143;DHT22;7672;50.834;6.286;2024-03-02T07:23:50;12.10;99.90
15143;DHT22;7672;50.834;6.286;2024-03-02T07:26:17;12.10;99.90
15143;DHT22;7672;50.834;6.286;2024-03-02T07:28:48;12.10;99.90
15143;DHT22;7672;50.834;6.286;2024-03-02T07:31:16;12.00;99.90
15143;DHT22;7672;50.834;6.286;2024-03-02T07:33:46;12.00;99.90
15143;DHT22;7672;50.834;6.286;2024-03-02T07:36:13;12.00;99.90
15143;DHT22;7672;50.834;6.286;2024-03-02T07:38:41;11.90;99.90
15143;DHT22;7672;50.834;6.286;2024-03-02T07:41:11;11.90;99.90
15143;DHT22;7672;50.834;6.286;2024-03-02T07:43:38;12.00;99.90
15143;DHT22;7672;50.834;6.286;2024-03-02T07:46:05;12.00;99.90
15143;DHT22;7672;50.834;6.286;2024-03-02T07:48:33;12.00;99.90
15143;DHT22;7672;50.834;6.286;2024-03-02T07:51:00;12.10;99.90
15143;DHT22;7672;50.834;6.286;2024-03-02T07:53:28;12.10;99.90
15143;DHT22;7672;50.834;6.286;2024-03-02T07:55:56;12.10;99.90
15143;DHT22;7672;50.834;6.286;2024-03-02T07:58:28;12.10;99.90
15143;DHT22;7672;50.834;6.286;2024-03-02T08:00:57;12.10;99.90
15143;DHT22;7672;50.834;6.286;2024-03-02T08:03:26;12.10;99.90
15143;DHT22;7672;50.834;6.286;2024-03-02T08:05:54;12.30;99.90
15143;DHT22;7672;50.834;6.286;2024-03-02T08:08:21;12.40;99.90
15143;DHT22;7672;50.834;6.286;2024-03-02T08:10:48;12.60;99.90
15143;DHT22;7672;50.834;6.286;2024-03-02T08:13:16;12.60;99.90
15143;DHT22;7672;50.834;6.286;2024-03-02T08:15:43;12.60;99.90
15143;DHT22;7672;50.834;6.286;2024-03-02T08:18:10;12.60;99.90
15143;DHT22;7672;50.834;6.286;2024-03-02T08:20:37;12.60;99.90
15143;DHT22;7672;50.834;6.286;2024-03-02T08:23:04;12.60;99.90
15143;DHT22;7672;50.834;6.286;2024-03-02T08:25:32;12.60;99.90
15143;DHT22;7672;50.834;6.286;2024-03-02T08:28:02;12.60;99.90
15143;DHT22;7672;50.834;6.286;2024-03-02T08:30:29;12.60;99.90
15143;DHT22;7672;50.834;6.286;2024-03-02T08:32:56;12.60;99.90
15143;DHT22;7672;50.834;6.286;2024-03-02T08:35:23;12.70;99.90
15143;DHT22;7672;50.834;6.286;2024-03-02T08:37:51;12.80;99.90
15143;DHT22;7672;50.834;6.286;2024-03-02T08:40:18;13.00;99.90
15143;DHT22;7672;50.834;6.286;2024-03-02T08:42:46;13.10;99.90
15143;DHT22;7672;50.834;6.286;2024-03-02T08:45:13;13.20;99.90
15143;DHT22;7672;50.834;6.286;2024-03-02T08:47:41;13.30;99.90
15143;DHT22;7672;50.834;6.286;2024-03-02T08:50:08;13.30;99.90
15143;DHT22;7672;50.834;6.286;2024-03-02T08:52:35;13.30;99.90
15143;DHT22;7672;50.834;6.286;2024-03-02T08:55:02;13.40;99.90
15143;DHT22;7672;50.834;6.286;2024-03-02T08:57:30;13.40;99.90
15143;DHT22;7672;50.834;6.286;2024-03-02T08:59:58;13.40;99.90
15143;DHT22;7672;50.834;6.286;2024-03-02T09:02:26;13.40;99.90
15143;DHT22;7672;50.834;6.286;2024-03-02T09:04:53;13.40;99.90
15143;DHT22;7672;50.834;6.286;2024-03-02T09:07:20;13.40;99.90
15143;DHT22;7672;50.834;6.286;2024-03-02T09:09:47;13.50;99.90
15143;DHT22;7672;50.834;6.286;2024-03-02T09:12:15;13.60;99.90
15143;DHT22;7672;50.834;6.286;2024-03-02T09:14:42;13.70;99.90
15143;DHT22;7672;50.834;6.286;2024-03-02T09:17:09;13.90;99.90
15143;DHT22;7672;50.834;6.286;2024-03-02T09:19:38;14.20;99.90
15143;DHT22;7672;50.834;6.286;2024-03-02T09:22:06;14.50;99.90
15143;DHT22;7672;50.834;6.286;2024-03-02T09:24:33;14.80;99.90
15143;DHT22;7672;50.834;6.286;2024-03-02T09:27:00;15.20;99.90
15143;DHT22;7672;50.834;6.286;2024-03-02T09:29:27;15.60;99.90
15143;DHT22;7672;50.834;6.286;2024-03-02T09:31:54;16.10;99.90
15143;DHT22;7672;50.834;6.286;2024-03-02T09:34:21;16.50;99.90
15143;DHT22;7672;50.834;6.286;2024-03-02T09:36:50;16.80;99.90
15143;DHT22;7672;50.834;6.286;2024-03-02T09:39:18;17.10;99.90
15143;DHT22;7672;50.834;6.286;2024-03-02T09:41:45;17.40;99.90
15143;DHT22;7672;50.834;6.286;2024-03-02T09:44:14;17.80;99.90
15143;DHT22;7672;50.834;6.286;2024-03-02T09:46:41;18.10;99.90
15143;DHT22;7672;50.834;6.286;2024-03-02T09:49:11;18.50;99.90
15143;DHT22;7672;50.834;6.286;2024-03-02T09:51:38;18.80;99.90
15143;DHT22;7672;50.834;6.286;2024-03-02T09:54:07;19.10;99.90
15143;DHT22;7672;50.834;6.286;2024-03-02T09:56:47;19.40;99.90
15143;DHT22;7672;50.834;6.286;2024-03-02T09:59:14;19.80;99.90
15143;DHT22;7672;50.834;6.286;2024-03-02T10:01:58;20.00;99.90
15143;DHT22;7672;50.834;6.286;2024-03-02T10:04:27;20.30;99.90
15143;DHT22;7672;50.834;6.286;2024-03-02T10:09:47;20.80;99.90
15143;DHT22;7672;50.834;6.286;2024-03-02T10:12:16;21.00;99.90
15143;DHT22;7672;50.834;6.286;2024-03-02T10:14:45;21.20;99.90
15143;DHT22;7672;50.834;6.286;2024-03-02T10:17:13;21.50;99.90
15143;DHT22;7672;50.834;6.286;2024-03-02T10:19:42;21.70;99.90
15143;DHT22;7672;50.834;6.286;2024-03-02T10:22:10;21.90;99.90
15143;DHT22;7672;50.834;6.286;2024-03-02T10:24:41;22.20;99.90
15143;DHT22;7672;50.834;6.286;2024-03-02T10:27:18;22.50;99.50
15143;DHT22;7672;50.834;6.286;2024-03-02T10:29:50;22.80;98.10
15143;DHT22;7672;50.834;6.286;2024-03-02T10:32:17;23.30;98.00
15143;DHT22;7672;50.834;6.286;2024-03-02T10:34:45;23.40;96.50
15143;DHT22;7672;50.834;6.286;2024-03-02T10:37:15;23.60;95.60
15143;DHT22;7672;50.834;6.286;2024-03-02T10:39:46;23.60;95.10
15143;DHT22;7672;50.834;6.286;2024-03-02T10:42:14;23.80;94.70
15143;DHT22;7672;50.834;6.286;2024-03-02T10:44:42;24.00;95.00
15143;DHT22;7672;50.834;6.286;2024-03-02T10:47:12;24.10;94.20
15143;DHT22;7672;50.834;6.286;2024-03-02T10:49:42;24.20;94.10
15143;DHT22;7672;50.834;6.286;2024-03-02T10:52:10;24.30;93.90
15143;DHT22;7672;50.834;6.286;2024-03-02T10:54:37;24.40;94.00
15143;DHT22;7672;50.834;6.286;2024-03-02T10:57:07;24.50;93.50
15143;DHT22;7672;50.834;6.286;2024-03-02T10:59:37;24.60;93.60
15143;DHT22;7672;50.834;6.286;2024-03-02T11:02:17;25.00;94.20
15143;DHT22;7672;50.834;6.286;2024-03-02T11:04:49;25.20;93.50
15143;DHT22;7672;50.834;6.286;2024-03-02T11:07:20;25.50;92.00
15143;DHT22;7672;50.834;6.286;2024-03-02T11:10:00;25.70;92.10
15143;DHT22;7672;50.834;6.286;2024-03-02T11:12:54;25.90;90.00
15143;DHT22;7672;50.834;6.286;2024-03-02T11:15:25;26.00;90.30
15143;DHT22;7672;50.834;6.286;2024-03-02T11:17:54;26.00;90.10
15143;DHT22;7672;50.834;6.286;2024-03-02T11:20:21;25.90;89.70
15143;DHT22;7672;50.834;6.286;2024-03-02T11:22:49;25.90;90.50
15143;DHT22;7672;50.834;6.286;2024-03-02T11:25:24;25.90;89.30
15143;DHT22;7672;50.834;6.286;2024-03-02T11:33:03;26.20;83.60
15143;DHT22;7672;50.834;6.286;2024-03-02T11:35:44;26.00;81.00
15143;DHT22;7672;50.834;6.286;2024-03-02T11:38:14;25.80;83.40
15143;DHT22;7672;50.834;6.286;2024-03-02T11:40:42;25.50;85.80
15143;DHT22;7672;50.834;6.286;2024-03-02T11:43:09;25.30;84.00
15143;DHT22;7672;50.834;6.286;2024-03-02T11:45:38;24.90;83.70
15143;DHT22;7672;50.834;6.286;2024-03-02T11:48:08;24.50;84.70
15143;DHT22;7672;50.834;6.286;2024-03-02T11:50:46;24.00;85.00
15143;DHT22;7672;50.834;6.286;2024-03-02T11:53:16;23.50;86.00
15143;DHT22;7672;50.834;6.286;2024-03-02T11:55:45;23.10;86.40
15143;DHT22;7672;50.834;6.286;2024-03-02T11:58:15;22.60;88.50
15143;DHT22;7672;50.834;6.286;2024-03-02T12:00:51;22.20;87.80
15143;DHT22;7672;50.834;6.286;2024-03-02T12:03:24;21.80;87.70
15143;DHT22;7672;50.834;6.286;2024-03-02T12:05:53;21.40;89.30
15143;DHT22;7672;50.834;6.286;2024-03-02T12:08:21;21.10;90.00
15143;DHT22;7672;50.834;6.286;2024-03-02T12:11:00;20.80;90.20
15143;DHT22;7672;50.834;6.286;2024-03-02T12:13:30;20.60;90.30
15143;DHT22;7672;50.834;6.286;2024-03-02T12:15:57;20.40;90.90
15143;DHT22;7672;50.834;6.286;2024-03-02T12:18:25;20.20;90.90
15143;DHT22;7672;50.834;6.286;2024-03-02T12:20:53;20.00;91.30
15143;DHT22;7672;50.834;6.286;2024-03-02T12:23:24;19.80;91.50
15143;DHT22;7672;50.834;6.286;2024-03-02T12:25:52;19.80;91.60
15143;DHT22;7672;50.834;6.286;2024-03-02T12:28:19;19.50;91.90
15143;DHT22;7672;50.834;6.286;2024-03-02T12:30:46;19.30;92.60
15143;DHT22;7672;50.834;6.286;2024-03-02T12:33:14;19.20;92.20
15143;DHT22;7672;50.834;6.286;2024-03-02T12:35:41;19.10;92.70
15143;DHT22;7672;50.834;6.286;2024-03-02T12:38:09;19.00;93.20
15143;DHT22;7672;50.834;6.286;2024-03-02T12:40:37;18.90;93.40
15143;DHT22;7672;50.834;6.286;2024-03-02T12:43:05;18.80;93.70
15143;DHT22;7672;50.834;6.286;2024-03-02T12:45:34;18.70;94.20
15143;DHT22;7672;50.834;6.286;2024-03-02T12:48:02;18.70;94.30
15143;DHT22;7672;50.834;6.286;2024-03-02T12:50:33;18.60;94.80
15143;DHT22;7672;50.834;6.286;2024-03-02T12:53:00;18.60;95.00
15143;DHT22;7672;50.834;6.286;2024-03-02T12:55:27;18.60;94.60
15143;DHT22;7672;50.834;6.286;2024-03-02T12:57:55;18.50;95.00
15143;DHT22;7672;50.834;6.286;2024-03-02T13:00:27;18.40;95.70
15143;DHT22;7672;50.834;6.286;2024-03-02T13:02:56;18.40;95.70
15143;DHT22;7672;50.834;6.286;2024-03-02T13:05:34;18.40;95.70
15143;DHT22;7672;50.834;6.286;2024-03-02T13:08:02;18.30;95.80
15143;DHT22;7672;50.834;6.286;2024-03-02T13:10:34;18.30;96.30
15143;DHT22;7672;50.834;6.286;2024-03-02T13:13:04;18.30;95.70
15143;DHT22;7672;50.834;6.286;2024-03-02T13:15:38;18.30;96.10
15143;DHT22;7672;50.834;6.286;2024-03-02T13:18:07;18.10;96.40
15143;DHT22;7672;50.834;6.286;2024-03-02T13:20:37;18.00;96.90
15143;DHT22;7672;50.834;6.286;2024-03-02T13:23:07;17.90;97.30
15143;DHT22;7672;50.834;6.286;2024-03-02T13:25:39;17.80;97.60
15143;DHT22;7672;50.834;6.286;2024-03-02T13:28:07;17.80;97.80
15143;DHT22;7672;50.834;6.286;2024-03-02T13:30:38;17.80;97.90
15143;DHT22;7672;50.834;6.286;2024-03-02T13:33:08;17.80;98.30
15143;DHT22;7672;50.834;6.286;2024-03-02T13:35:38;17.80;98.40
15143;DHT22;7672;50.834;6.286;2024-03-02T13:38:08;17.70;98.20
15143;DHT22;7672;50.834;6.286;2024-03-02T13:40:35;17.70;98.10
15143;DHT22;7672;50.834;6.286;2024-03-02T13:43:08;17.70;98.20
15143;DHT22;7672;50.834;6.286;2024-03-02T13:45:36;17.60;98.20
15143;DHT22;7672;50.834;6.286;2024-03-02T13:48:06;17.60;98.80
15143;DHT22;7672;50.834;6.286;2024-03-02T13:50:36;17.50;98.90
15143;DHT22;7672;50.834;6.286;2024-03-02T13:53:04;17.50;99.00
15143;DHT22;7672;50.834;6.286;2024-03-02T13:55:31;17.40;99.00
15143;DHT22;7672;50.834;6.286;2024-03-02T13:57:59;17.30;99.40
15143;DHT22;7672;50.834;6.286;2024-03-02T14:00:32;17.30;99.80
15143;DHT22;7672;50.834;6.286;2024-03-02T14:03:06;17.20;99.90
15143;DHT22;7672;50.834;6.286;2024-03-02T14:05:46;17.20;99.90
15143;DHT22;7672;50.834;6.286;2024-03-02T14:08:14;17.20;99.90
15143;DHT22;7672;50.834;6.286;2024-03-02T14:10:44;17.20;99.90
15143;DHT22;7672;50.834;6.286;2024-03-02T14:13:14;17.20;99.90
15143;DHT22;7672;50.834;6.286;2024-03-02T14:15:48;17.20;99.90
15143;DHT22;7672;50.834;6.286;2024-03-02T14:18:17;17.30;99.90
15143;DHT22;7672;50.834;6.286;2024-03-02T14:20:49;17.30;99.90
15143;DHT22;7672;50.834;6.286;2024-03-02T14:23:19;17.00;99.90
15143;DHT22;7672;50.834;6.286;2024-03-02T14:25:57;16.90;99.90
15143;DHT22;7672;50.834;6.286;2024-03-02T14:28:30;17.00;99.90
15143;DHT22;7672;50.834;6.286;2024-03-02T14:31:19;16.80;99.90
15143;DHT22;7672;50.834;6.286;2024-03-02T14:33:49;16.70;99.90
15143;DHT22;7672;50.834;6.286;2024-03-02T14:36:21;16.70;99.90
15143;DHT22;7672;50.834;6.286;2024-03-02T14:38:51;16.60;99.90
15143;DHT22;7672;50.834;6.286;2024-03-02T14:41:19;16.50;99.90
15143;DHT22;7672;50.834;6.286;2024-03-02T14:43:46;16.50;99.90
15143;DHT22;7672;50.834;6.286;2024-03-02T14:46:13;16.50;99.90
15143;DHT22;7672;50.834;6.286;2024-03-02T14:48:40;16.40;99.90
15143;DHT22;7672;50.834;6.286;2024-03-02T14:51:07;16.40;99.90
15143;DHT22;7672;50.834;6.286;2024-03-02T14:53:34;16.30;99.90
15143;DHT22;7672;50.834;6.286;2024-03-02T14:56:02;16.30;99.90
15143;DHT22;7672;50.834;6.286;2024-03-02T14:58:29;16.30;99.90
15143;DHT22;7672;50.834;6.286;2024-03-02T15:00:57;16.20;99.90
15143;DHT22;7672;50.834;6.286;2024-03-02T15:03:24;16.20;99.90
15143;DHT22;7672;50.834;6.286;2024-03-02T15:05:51;16.20;99.90
15143;DHT22;7672;50.834;6.286;2024-03-02T15:08:19;16.20;99.90
15143;DHT22;7672;50.834;6.286;2024-03-02T15:10:46;16.20;99.90
15143;DHT22;7672;50.834;6.286;2024-03-02T15:13:13;16.20;99.90
15143;DHT22;7672;50.834;6.286;2024-03-02T15:15:41;16.20;99.90
15143;DHT22;7672;50.834;6.286;2024-03-02T15:18:08;16.20;99.90
15143;DHT22;7672;50.834;6.286;2024-03-02T15:20:35;16.10;99.90
15143;DHT22;7672;50.834;6.286;2024-03-02T15:23:03;16.10;99.90
15143;DHT22;7672;50.834;6.286;2024-03-02T15:25:30;16.10;99.90
15143;DHT22;7672;50.834;6.286;2024-03-02T15:27:57;16.10;99.90
15143;DHT22;7672;50.834;6.286;2024-03-02T15:30:24;16.10;99.90
15143;DHT22;7672;50.834;6.286;2024-03-02T15:32:51;16.20;99.90
15143;DHT22;7672;50.834;6.286;2024-03-02T15:35:18;16.20;99.90
15143;DHT22;7672;50.834;6.286;2024-03-02T15:37:45;16.20;99.90
15143;DHT22;7672;50.834;6.286;2024-03-02T15:40:12;16.20;99.90
15143;DHT22;7672;50.834;6.286;2024-03-02T15:42:39;16.10;99.90
15143;DHT22;7672;50.834;6.286;2024-03-02T15:45:07;16.20;99.90
15143;DHT22;7672;50.834;6.286;2024-03-02T15:47:34;16.20;99.90
15143;DHT22;7672;50.834;6.286;2024-03-02T15:50:03;16.20;99.90
15143;DHT22;7672;50.834;6.286;2024-03-02T15:52:31;16.20;99.90
15143;DHT22;7672;50.834;6.286;2024-03-02T15:54:58;16.20;99.90
15143;DHT22;7672;50.834;6.286;2024-03-02T15:57:25;16.20;99.90
15143;DHT22;7672;50.834;6.286;2024-03-02T15:59:52;16.20;99.90
15143;DHT22;7672;50.834;6.286;2024-03-02T16:02:20;16.20;99.90
15143;DHT22;7672;50.834;6.286;2024-03-02T16:04:47;16.30;99.90